sensor_id;sensor_type;location;lat;lon;timestamp;P1;durP1;ratioP1;P2;durP2;ratioP2
22515;SDS011;11424;48.860;9.624;2023-07-29T00:00:57;10.5;;;12.9;;
22515;SDS011;11424;48.860;9.624;2023-07-29T00:05:57;8.5;;;13.4;;
22515;SDS011;11424;48.860;9.624;2023-07-29T00:10:57;7.7;;;13;;
22515;SDS011;11424;48.860;9.624;2023-07-29T00:15:58;5.7;;;9.5;;
22515;SDS011;11424;48.860;9.624;2023-07-29T00:20:57;0.9;;;0.9;;
22515;SDS011;11424;48.860;9.624;2023-07-29T00:25:57;10;;;13.7;;
22515;SDS011;11424;48.860;9.624;2023-07-29T00:30:57;5.3;;;11.4;;
22515;SDS011;11424;48.860;9.624;2023-07-29T00:35:58;6.7;;;12.5;;
22515;SDS011;11424;48.860;9.624;2023-07-29T00:40:57;7.7;;;15.4;;
22515;SDS011;11424;48.860;9.624;2023-07-29T00:45:57;20.2;;;22.2;;
22515;SDS011;11424;48.860;9.624;2023-07-29T00:50:57;23.9;;;26;;
22515;SDS011;11424;48.860;9.624;2023-07-29T00:55:57;10.8;;;14.5;;
22515;SDS011;11424;48.860;9.624;2023-07-29T01:00:57;36.4;;;38;;
22515;SDS011;11424;48.860;9.624;2023-07-29T01:06:04;50.6;;;54.2;;
22515;SDS011;11424;48.860;9.624;2023-07-29T01:10:58;30.3;;;33.5;;
22515;SDS011;11424;48.860;9.624;2023-07-29T01:15:58;19.6;;;22.4;;
22515;SDS011;11424;48.860;9.624;2023-07-29T01:20:58;43.7;;;47;;
22515;SDS011;11424;48.860;9.624;2023-07-29T01:25:58;46.1;;;49.2;;
22515;SDS011;11424;48.860;9.624;2023-07-29T01:30:59;38.9;;;42.3;;
22515;SDS011;11424;48.860;9.624;2023-07-29T01:35:58;50.3;;;53.8;;
22515;SDS011;11424;48.860;9.624;2023-07-29T01:40:58;50.6;;;54.4;;
22515;SDS011;11424;48.860;9.624;2023-07-29T01:45:58;39.7;;;43;;
22515;SDS011;11424;48.860;9.624;2023-07-29T01:50:58;48.4;;;51.8;;
22515;SDS011;11424;48.860;9.624;2023-07-29T01:55:58;45.4;;;48.6;;
22515;SDS011;11424;48.860;9.624;2023-07-29T02:00:58;49.4;;;52.8;;
22515;SDS011;11424;48.860;9.624;2023-07-29T02:05:58;49.2;;;52.6;;
22515;SDS011;11424;48.860;9.624;2023-07-29T02:10:58;49.6;;;53;;
22515;SDS011;11424;48.860;9.624;2023-07-29T02:15:58;51.4;;;55.1;;
22515;SDS011;11424;48.860;9.624;2023-07-29T02:20:58;45.8;;;48.9;;
22515;SDS011;11424;48.860;9.624;2023-07-29T02:25:58;51;;;54.5;;
22515;SDS011;11424;48.860;9.624;2023-07-29T02:31:14;38.1;;;39.8;;
22515;SDS011;11424;48.860;9.624;2023-07-29T02:35:58;38.2;;;40;;
22515;SDS011;11424;48.860;9.624;2023-07-29T02:40:58;35.9;;;37.5;;
22515;SDS011;11424;48.860;9.624;2023-07-29T02:45:58;49.7;;;53.3;;
22515;SDS011;11424;48.860;9.624;2023-07-29T02:50:58;46.8;;;50.3;;
22515;SDS011;11424;48.860;9.624;2023-07-29T02:55:58;49.1;;;52.7;;
22515;SDS011;11424;48.860;9.624;2023-07-29T03:01:00;49.4;;;52.8;;
22515;SDS011;11424;48.860;9.624;2023-07-29T03:05:58;50.6;;;54.2;;
22515;SDS011;11424;48.860;9.624;2023-07-29T03:10:58;51.7;;;55.5;;
22515;SDS011;11424;48.860;9.624;2023-07-29T03:16:03;39.1;;;40.9;;
22515;SDS011;11424;48.860;9.624;2023-07-29T03:20:58;43;;;45.1;;
22515;SDS011;11424;48.860;9.624;2023-07-29T03:25:58;50.6;;;53.5;;
22515;SDS011;11424;48.860;9.624;2023-07-29T03:30:58;49.1;;;52.4;;
22515;SDS011;11424;48.860;9.624;2023-07-29T03:35:58;15.5;;;18;;
22515;SDS011;11424;48.860;9.624;2023-07-29T03:40:58;24.8;;;27.2;;
22515;SDS011;11424;48.860;9.624;2023-07-29T03:45:58;11.9;;;18.4;;
22515;SDS011;11424;48.860;9.624;2023-07-29T03:50:58;10;;;16.1;;
22515;SDS011;11424;48.860;9.624;2023-07-29T03:55:58;8.3;;;11.8;;
22515;SDS011;11424;48.860;9.624;2023-07-29T04:00:58;1.1;;;1.1;;
22515;SDS011;11424;48.860;9.624;2023-07-29T04:05:58;1.9;;;2;;
22515;SDS011;11424;48.860;9.624;2023-07-29T04:10:58;8;;;14.3;;
22515;SDS011;11424;48.860;9.624;2023-07-29T04:15:58;10.3;;;16.4;;
22515;SDS011;11424;48.860;9.624;2023-07-29T04:20:58;11.2;;;18.5;;
22515;SDS011;11424;48.860;9.624;2023-07-29T04:25:58;7.1;;;12.5;;
22515;SDS011;11424;48.860;9.624;2023-07-29T04:30:58;8.7;;;13.2;;
22515;SDS011;11424;48.860;9.624;2023-07-29T04:35:58;10.4;;;15.4;;
22515;SDS011;11424;48.860;9.624;2023-07-29T04:40:58;1.7;;;1.8;;
22515;SDS011;11424;48.860;9.624;2023-07-29T04:45:58;2.3;;;2.4;;
22515;SDS011;11424;48.860;9.624;2023-07-29T04:50:58;12.8;;;17.7;;
22515;SDS011;11424;48.860;9.624;2023-07-29T04:55:58;12.7;;;17.2;;
22515;SDS011;11424;48.860;9.624;2023-07-29T05:00:58;9.6;;;14.1;;
22515;SDS011;11424;48.860;9.624;2023-07-29T05:05:58;17.5;;;19.5;;
22515;SDS011;11424;48.860;9.624;2023-07-29T05:10:58;11.4;;;16.2;;
22515;SDS011;11424;48.860;9.624;2023-07-29T05:15:58;10.1;;;16.2;;
22515;SDS011;11424;48.860;9.624;2023-07-29T05:20:58;10.6;;;17.1;;
22515;SDS011;11424;48.860;9.624;2023-07-29T05:25:58;1.8;;;1.9;;
22515;SDS011;11424;48.860;9.624;2023-07-29T05:31:00;9.2;;;15.1;;
22515;SDS011;11424;48.860;9.624;2023-07-29T05:35:58;13.7;;;18;;
22515;SDS011;11424;48.860;9.624;2023-07-29T05:40:58;12.7;;;17.1;;
22515;SDS011;11424;48.860;9.624;2023-07-29T05:45:58;8.9;;;15.6;;
22515;SDS011;11424;48.860;9.624;2023-07-29T05:50:58;11.8;;;16.5;;
22515;SDS011;11424;48.860;9.624;2023-07-29T05:55:58;12.9;;;17.7;;
22515;SDS011;11424;48.860;9.624;2023-07-29T06:00:58;16.8;;;19;;
22515;SDS011;11424;48.860;9.624;2023-07-29T06:05:58;10.3;;;15.3;;
22515;SDS011;11424;48.860;9.624;2023-07-29T06:10:58;2.1;;;2.2;;
22515;SDS011;11424;48.860;9.624;2023-07-29T06:15:58;2.2;;;2.4;;
22515;SDS011;11424;48.860;9.624;2023-07-29T06:20:58;2.5;;;2.7;;
22515;SDS011;11424;48.860;9.624;2023-07-29T06:25:58;2.4;;;2.5;;
22515;SDS011;11424;48.860;9.624;2023-07-29T06:30:58;11.4;;;17.4;;
22515;SDS011;11424;48.860;9.624;2023-07-29T06:35:58;11.4;;;16;;
22515;SDS011;11424;48.860;9.624;2023-07-29T06:40:58;10.9;;;17.7;;
22515;SDS011;11424;48.860;9.624;2023-07-29T06:45:58;11.8;;;17;;
22515;SDS011;11424;48.860;9.624;2023-07-29T06:50:58;15.7;;;18.1;;
22515;SDS011;11424;48.860;9.624;2023-07-29T06:55:58;2.4;;;2.6;;
22515;SDS011;11424;48.860;9.624;2023-07-29T07:00:58;3.9;;;4.1;;
22515;SDS011;11424;48.860;9.624;2023-07-29T07:05:58;3.4;;;3.5;;
22515;SDS011;11424;48.860;9.624;2023-07-29T07:10:58;11.1;;;18;;
22515;SDS011;11424;48.860;9.624;2023-07-29T07:15:58;9.6;;;15;;
22515;SDS011;11424;48.860;9.624;2023-07-29T07:20:58;10.4;;;16;;
22515;SDS011;11424;48.860;9.624;2023-07-29T07:25:58;9.3;;;14.4;;
22515;SDS011;11424;48.860;9.624;2023-07-29T07:30:58;9;;;13.4;;
22515;SDS011;11424;48.860;9.624;2023-07-29T07:35:58;5.9;;;10.4;;
22515;SDS011;11424;48.860;9.624;2023-07-29T07:40:58;2.7;;;2.9;;
22515;SDS011;11424;48.860;9.624;2023-07-29T07:45:58;2.9;;;3.1;;
22515;SDS011;11424;48.860;9.624;2023-07-29T07:50:58;12.1;;;16;;
22515;SDS011;11424;48.860;9.624;2023-07-29T07:55:58;12.6;;;16.5;;
22515;SDS011;11424;48.860;9.624;2023-07-29T08:01:00;8.9;;;13.9;;
22515;SDS011;11424;48.860;9.624;2023-07-29T08:05:58;8.1;;;15;;
22515;SDS011;11424;48.860;9.624;2023-07-29T08:10:58;8.1;;;14.5;;
22515;SDS011;11424;48.860;9.624;2023-07-29T08:15:58;8.4;;;13.6;;
22515;SDS011;11424;48.860;9.624;2023-07-29T08:20:59;1;;;1;;
22515;SDS011;11424;48.860;9.624;2023-07-29T08:25:59;1.3;;;1.4;;
22515;SDS011;11424;48.860;9.624;2023-07-29T08:30:58;6.7;;;12.9;;
22515;SDS011;11424;48.860;9.624;2023-07-29T08:35:58;9.3;;;14.2;;
22515;SDS011;11424;48.860;9.624;2023-07-29T08:40:59;38.2;;;40.8;;
22515;SDS011;11424;48.860;9.624;2023-07-29T08:45:58;27.5;;;29.7;;
22515;SDS011;11424;48.860;9.624;2023-07-29T08:50:58;40.8;;;43.2;;
22515;SDS011;11424;48.860;9.624;2023-07-29T08:55:58;40.9;;;43.3;;
22515;SDS011;11424;48.860;9.624;2023-07-29T09:00:58;35;;;37.3;;
22515;SDS011;11424;48.860;9.624;2023-07-29T09:05:58;4.7;;;4.9;;
22515;SDS011;11424;48.860;9.624;2023-07-29T09:10:58;13.3;;;16.8;;
22515;SDS011;11424;48.860;9.624;2023-07-29T09:15:58;12.7;;;14.2;;
22515;SDS011;11424;48.860;9.624;2023-07-29T09:20:58;17.6;;;19.5;;
22515;SDS011;11424;48.860;9.624;2023-07-29T09:26:01;6.7;;;11.6;;
22515;SDS011;11424;48.860;9.624;2023-07-29T09:30:58;9.4;;;15.4;;
22515;SDS011;11424;48.860;9.624;2023-07-29T09:35:58;6.4;;;12.5;;
22515;SDS011;11424;48.860;9.624;2023-07-29T09:40:58;6.9;;;13.1;;
22515;SDS011;11424;48.860;9.624;2023-07-29T09:45:59;12.9;;;15;;
22515;SDS011;11424;48.860;9.624;2023-07-29T09:50:58;16;;;16.7;;
22515;SDS011;11424;48.860;9.624;2023-07-29T09:55:58;12;;;12.5;;
22515;SDS011;11424;48.860;9.624;2023-07-29T10:00:58;12.5;;;13;;
22515;SDS011;11424;48.860;9.624;2023-07-29T10:05:59;4.1;;;4.3;;
22515;SDS011;11424;48.860;9.624;2023-07-29T10:10:59;16;;;17.9;;
22515;SDS011;11424;48.860;9.624;2023-07-29T10:15:58;10.6;;;13;;
22515;SDS011;11424;48.860;9.624;2023-07-29T10:20:59;12.9;;;14.4;;
22515;SDS011;11424;48.860;9.624;2023-07-29T10:25:59;15;;;16.6;;
22515;SDS011;11424;48.860;9.624;2023-07-29T10:30:58;24.1;;;26;;
22515;SDS011;11424;48.860;9.624;2023-07-29T10:35:58;13.1;;;13.7;;
22515;SDS011;11424;48.860;9.624;2023-07-29T10:40:58;5.4;;;5.7;;
22515;SDS011;11424;48.860;9.624;2023-07-29T10:46:14;4.8;;;5;;
22515;SDS011;11424;48.860;9.624;2023-07-29T10:51:21;11.6;;;13.4;;
22515;SDS011;11424;48.860;9.624;2023-07-29T10:55:58;7.2;;;12.8;;
22515;SDS011;11424;48.860;9.624;2023-07-29T11:00:58;7.4;;;13.5;;
22515;SDS011;11424;48.860;9.624;2023-07-29T11:05:58;10.4;;;14;;
22515;SDS011;11424;48.860;9.624;2023-07-29T11:10:59;10.6;;;15.1;;
22515;SDS011;11424;48.860;9.624;2023-07-29T11:15:58;17.7;;;19.1;;
22515;SDS011;11424;48.860;9.624;2023-07-29T11:20:58;1.2;;;1.3;;
22515;SDS011;11424;48.860;9.624;2023-07-29T11:25:58;1.8;;;1.9;;
22515;SDS011;11424;48.860;9.624;2023-07-29T11:30:58;9.5;;;14.2;;
22515;SDS011;11424;48.860;9.624;2023-07-29T11:35:58;8.4;;;14;;
22515;SDS011;11424;48.860;9.624;2023-07-29T11:40:59;10.8;;;15.3;;
22515;SDS011;11424;48.860;9.624;2023-07-29T11:46:00;14.7;;;16.4;;
22515;SDS011;11424;48.860;9.624;2023-07-29T11:50:58;9.7;;;13.3;;
22515;SDS011;11424;48.860;9.624;2023-07-29T11:55:58;16.1;;;17.8;;
22515;SDS011;11424;48.860;9.624;2023-07-29T12:00:58;10.9;;;11.3;;
22515;SDS011;11424;48.860;9.624;2023-07-29T12:05:58;11.2;;;11.7;;
22515;SDS011;11424;48.860;9.624;2023-07-29T12:10:58;10.8;;;15.2;;
22515;SDS011;11424;48.860;9.624;2023-07-29T12:16:00;7.5;;;13.5;;
22515;SDS011;11424;48.860;9.624;2023-07-29T12:20:58;13.4;;;16.5;;
22515;SDS011;11424;48.860;9.624;2023-07-29T12:25:59;17.7;;;19.4;;
22515;SDS011;11424;48.860;9.624;2023-07-29T12:30:58;16.4;;;18.1;;
22515;SDS011;11424;48.860;9.624;2023-07-29T12:35:58;8.1;;;13.2;;
22515;SDS011;11424;48.860;9.624;2023-07-29T12:40:58;7.4;;;11.4;;
22515;SDS011;11424;48.860;9.624;2023-07-29T12:45:58;3.3;;;3.4;;
22515;SDS011;11424;48.860;9.624;2023-07-29T12:50:58;7.3;;;12.8;;
22515;SDS011;11424;48.860;9.624;2023-07-29T12:55:58;8.2;;;12.3;;
22515;SDS011;11424;48.860;9.624;2023-07-29T13:00:58;8.7;;;14.1;;
22515;SDS011;11424;48.860;9.624;2023-07-29T13:05:58;8.5;;;14.3;;
22515;SDS011;11424;48.860;9.624;2023-07-29T13:10:58;8.6;;;13.8;;
22515;SDS011;11424;48.860;9.624;2023-07-29T13:15:58;8.3;;;12.9;;
22515;SDS011;11424;48.860;9.624;2023-07-29T13:20:58;18.8;;;33.8;;
22515;SDS011;11424;48.860;9.624;2023-07-29T13:25:58;8.6;;;15.6;;
22515;SDS011;11424;48.860;9.624;2023-07-29T13:30:58;10.3;;;14;;
22515;SDS011;11424;48.860;9.624;2023-07-29T13:35:58;11.1;;;16.2;;
22515;SDS011;11424;48.860;9.624;2023-07-29T13:40:58;8.1;;;14.1;;
22515;SDS011;11424;48.860;9.624;2023-07-29T13:45:58;8.3;;;15.4;;
22515;SDS011;11424;48.860;9.624;2023-07-29T13:50:58;8.7;;;14.7;;
22515;SDS011;11424;48.860;9.624;2023-07-29T13:55:58;8;;;14.7;;
22515;SDS011;11424;48.860;9.624;2023-07-29T14:00:58;9.6;;;15.1;;
22515;SDS011;11424;48.860;9.624;2023-07-29T14:05:58;6.2;;;11.4;;
22515;SDS011;11424;48.860;9.624;2023-07-29T14:10:58;7.9;;;13.6;;
22515;SDS011;11424;48.860;9.624;2023-07-29T14:16:00;9.4;;;9.8;;
22515;SDS011;11424;48.860;9.624;2023-07-29T14:20:59;1.6;;;1.7;;
22515;SDS011;11424;48.860;9.624;2023-07-29T14:25:58;3.6;;;3.8;;
22515;SDS011;11424;48.860;9.624;2023-07-29T14:30:59;9.9;;;14.9;;
22515;SDS011;11424;48.860;9.624;2023-07-29T14:35:59;8.3;;;12.9;;
22515;SDS011;11424;48.860;9.624;2023-07-29T14:40:59;9.1;;;14;;
22515;SDS011;11424;48.860;9.624;2023-07-29T14:45:58;9.5;;;15.7;;
22515;SDS011;11424;48.860;9.624;2023-07-29T14:50:59;12.1;;;14.9;;
22515;SDS011;11424;48.860;9.624;2023-07-29T14:55:59;13.1;;;14.3;;
22515;SDS011;11424;48.860;9.624;2023-07-29T15:00:59;3.1;;;3.2;;
22515;SDS011;11424;48.860;9.624;2023-07-29T15:05:59;5.2;;;5.4;;
22515;SDS011;11424;48.860;9.624;2023-07-29T15:10:59;16.3;;;18;;
22515;SDS011;11424;48.860;9.624;2023-07-29T15:15:59;8.4;;;15.3;;
22515;SDS011;11424;48.860;9.624;2023-07-29T15:20:59;9;;;16.2;;
22515;SDS011;11424;48.860;9.624;2023-07-29T15:25:59;13.8;;;16.8;;
22515;SDS011;11424;48.860;9.624;2023-07-29T15:30:59;15.5;;;17.2;;
22515;SDS011;11424;48.860;9.624;2023-07-29T15:35:59;16.5;;;18.4;;
22515;SDS011;11424;48.860;9.624;2023-07-29T15:40:59;3.1;;;3.2;;
22515;SDS011;11424;48.860;9.624;2023-07-29T15:45:59;3;;;3.1;;
22515;SDS011;11424;48.860;9.624;2023-07-29T15:50:59;7.6;;;13.3;;
22515;SDS011;11424;48.860;9.624;2023-07-29T15:55:59;12.3;;;13.8;;
22515;SDS011;11424;48.860;9.624;2023-07-29T16:00:59;9.2;;;14.6;;
22515;SDS011;11424;48.860;9.624;2023-07-29T16:05:59;3.9;;;4.1;;
22515;SDS011;11424;48.860;9.624;2023-07-29T16:10:59;1.7;;;1.8;;
22515;SDS011;11424;48.860;9.624;2023-07-29T16:15:59;2;;;2.1;;
22515;SDS011;11424;48.860;9.624;2023-07-29T16:20:59;1.8;;;1.9;;
22515;SDS011;11424;48.860;9.624;2023-07-29T16:25:59;1.1;;;1.1;;
22515;SDS011;11424;48.860;9.624;2023-07-29T16:30:59;7.6;;;9.9;;
22515;SDS011;11424;48.860;9.624;2023-07-29T16:35:59;1.4;;;1.4;;
22515;SDS011;11424;48.860;9.624;2023-07-29T16:40:59;1.2;;;1.2;;
22515;SDS011;11424;48.860;9.624;2023-07-29T16:45:59;1.7;;;1.8;;
22515;SDS011;11424;48.860;9.624;2023-07-29T16:50:59;1.7;;;1.8;;
22515;SDS011;11424;48.860;9.624;2023-07-29T16:55:59;1.7;;;1.8;;
22515;SDS011;11424;48.860;9.624;2023-07-29T17:00:59;2;;;2.1;;
22515;SDS011;11424;48.860;9.624;2023-07-29T17:05:59;1.6;;;1.7;;
22515;SDS011;11424;48.860;9.624;2023-07-29T17:10:59;1.4;;;1.5;;
22515;SDS011;11424;48.860;9.624;2023-07-29T17:15:59;1.5;;;1.5;;
22515;SDS011;11424;48.860;9.624;2023-07-29T17:20:59;2.2;;;2.3;;
22515;SDS011;11424;48.860;9.624;2023-07-29T17:25:59;5.4;;;5.6;;
22515;SDS011;11424;48.860;9.624;2023-07-29T17:30:59;21.7;;;22.9;;
22515;SDS011;11424;48.860;9.624;2023-07-29T17:35:59;37.3;;;39;;
22515;SDS011;11424;48.860;9.624;2023-07-29T17:40:59;28.3;;;29.9;;
22515;SDS011;11424;48.860;9.624;2023-07-29T17:45:59;34.9;;;36.7;;
22515;SDS011;11424;48.860;9.624;2023-07-29T17:50:59;2.9;;;3.1;;
22515;SDS011;11424;48.860;9.624;2023-07-29T17:55:59;2.9;;;3;;
22515;SDS011;11424;48.860;9.624;2023-07-29T18:00:59;3.4;;;3.7;;
22515;SDS011;11424;48.860;9.624;2023-07-29T18:05:59;27;;;28.5;;
22515;SDS011;11424;48.860;9.624;2023-07-29T18:10:59;15.6;;;16.5;;
22515;SDS011;11424;48.860;9.624;2023-07-29T18:15:59;30.9;;;32.8;;
22515;SDS011;11424;48.860;9.624;2023-07-29T18:20:59;44.1;;;46.3;;
22515;SDS011;11424;48.860;9.624;2023-07-29T18:25:59;17.9;;;18.8;;
22515;SDS011;11424;48.860;9.624;2023-07-29T18:30:59;14.8;;;16.2;;
22515;SDS011;11424;48.860;9.624;2023-07-29T18:35:59;25;;;26.3;;
22515;SDS011;11424;48.860;9.624;2023-07-29T18:40:59;8.3;;;8.7;;
22515;SDS011;11424;48.860;9.624;2023-07-29T18:45:59;24;;;25.3;;
22515;SDS011;11424;48.860;9.624;2023-07-29T18:50:59;25.1;;;26.5;;
22515;SDS011;11424;48.860;9.624;2023-07-29T18:55:59;3.4;;;3.6;;
22515;SDS011;11424;48.860;9.624;2023-07-29T19:00:59;2.1;;;2.2;;
22515;SDS011;11424;48.860;9.624;2023-07-29T19:05:59;1.5;;;1.6;;
22515;SDS011;11424;48.860;9.624;2023-07-29T19:10:59;1.6;;;1.7;;
22515;SDS011;11424;48.860;9.624;2023-07-29T19:15:59;1.6;;;1.7;;
22515;SDS011;11424;48.860;9.624;2023-07-29T19:20:59;11.3;;;11.8;;
22515;SDS011;11424;48.860;9.624;2023-07-29T19:25:59;2;;;2.1;;
22515;SDS011;11424;48.860;9.624;2023-07-29T19:30:59;10.4;;;13.9;;
22515;SDS011;11424;48.860;9.624;2023-07-29T19:35:59;2.5;;;2.7;;
22515;SDS011;11424;48.860;9.624;2023-07-29T19:40:59;1.9;;;2;;
22515;SDS011;11424;48.860;9.624;2023-07-29T19:45:59;1.3;;;1.4;;
22515;SDS011;11424;48.860;9.624;2023-07-29T19:50:59;2;;;2.6;;
22515;SDS011;11424;48.860;9.624;2023-07-29T19:55:59;1.5;;;1.9;;
22515;SDS011;11424;48.860;9.624;2023-07-29T20:00:59;1.5;;;1.6;;
22515;SDS011;11424;48.860;9.624;2023-07-29T20:05:59;2.4;;;2.5;;
22515;SDS011;11424;48.860;9.624;2023-07-29T20:10:59;11.2;;;12;;
22515;SDS011;11424;48.860;9.624;2023-07-29T20:15:59;6;;;6.3;;
22515;SDS011;11424;48.860;9.624;2023-07-29T20:20:59;3;;;3.2;;
22515;SDS011;11424;48.860;9.624;2023-07-29T20:25:59;6.7;;;7;;
22515;SDS011;11424;48.860;9.624;2023-07-29T20:30:59;8.1;;;10.7;;
22515;SDS011;11424;48.860;9.624;2023-07-29T20:35:59;4.9;;;5.1;;
22515;SDS011;11424;48.860;9.624;2023-07-29T20:40:59;7.5;;;7.8;;
22515;SDS011;11424;48.860;9.624;2023-07-29T20:45:59;9.3;;;9.8;;
22515;SDS011;11424;48.860;9.624;2023-07-29T20:50:59;2.8;;;2.9;;
22515;SDS011;11424;48.860;9.624;2023-07-29T20:55:59;4.7;;;4.9;;
22515;SDS011;11424;48.860;9.624;2023-07-29T21:00:59;5.2;;;5.5;;
22515;SDS011;11424;48.860;9.624;2023-07-29T21:05:59;6.1;;;6.5;;
22515;SDS011;11424;48.860;9.624;2023-07-29T21:10:59;5.4;;;5.7;;
22515;SDS011;11424;48.860;9.624;2023-07-29T21:15:59;2.6;;;2.7;;
22515;SDS011;11424;48.860;9.624;2023-07-29T21:20:59;4.8;;;5;;
22515;SDS011;11424;48.860;9.624;2023-07-29T21:25:59;3.4;;;3.6;;
22515;SDS011;11424;48.860;9.624;2023-07-29T21:31:01;3.8;;;4;;
22515;SDS011;11424;48.860;9.624;2023-07-29T21:35:59;5.5;;;5.8;;
22515;SDS011;11424;48.860;9.624;2023-07-29T21:40:59;10.1;;;10.7;;
22515;SDS011;11424;48.860;9.624;2023-07-29T21:45:59;32.8;;;34.9;;
22515;SDS011;11424;48.860;9.624;2023-07-29T21:50:59;21.7;;;22.9;;
22515;SDS011;11424;48.860;9.624;2023-07-29T21:56:00;5.8;;;6.1;;
22515;SDS011;11424;48.860;9.624;2023-07-29T22:00:59;10.4;;;10.8;;
22515;SDS011;11424;48.860;9.624;2023-07-29T22:06:02;16.9;;;17.7;;
22515;SDS011;11424;48.860;9.624;2023-07-29T22:11:01;26.4;;;28.5;;
22515;SDS011;11424;48.860;9.624;2023-07-29T22:15:59;23.4;;;25.2;;
22515;SDS011;11424;48.860;9.624;2023-07-29T22:20:59;22.3;;;23.3;;
22515;SDS011;11424;48.860;9.624;2023-07-29T22:25:59;22.3;;;23.3;;
22515;SDS011;11424;48.860;9.624;2023-07-29T22:30:59;15.5;;;16.7;;
22515;SDS011;11424;48.860;9.624;2023-07-29T22:35:59;49.1;;;52.6;;
22515;SDS011;11424;48.860;9.624;2023-07-29T22:40:59;27.2;;;29.4;;
22515;SDS011;11424;48.860;9.624;2023-07-29T22:45:59;21.3;;;23.4;;
22515;SDS011;11424;48.860;9.624;2023-07-29T22:50:59;13.6;;;15.4;;
22515;SDS011;11424;48.860;9.624;2023-07-29T22:55:59;24.6;;;26.7;;
22515;SDS011;11424;48.860;9.624;2023-07-29T23:00:59;24.5;;;25.5;;
22515;SDS011;11424;48.860;9.624;2023-07-29T23:05:59;18.6;;;19.5;;
22515;SDS011;11424;48.860;9.624;2023-07-29T23:11:00;4.7;;;5;;
22515;SDS011;11424;48.860;9.624;2023-07-29T23:15:59;8.8;;;13.5;;
22515;SDS011;11424;48.860;9.624;2023-07-29T23:20:59;17.4;;;19.3;;
22515;SDS011;11424;48.860;9.624;2023-07-29T23:25:59;26.5;;;28.7;;
22515;SDS011;11424;48.860;9.624;2023-07-29T23:30:59;17;;;18.8;;
22515;SDS011;11424;48.860;9.624;2023-07-29T23:35:59;17.6;;;19.5;;
22515;SDS011;11424;48.860;9.624;2023-07-29T23:40:59;47.7;;;50.7;;
22515;SDS011;11424;48.860;9.624;2023-07-29T23:45:59;39.5;;;41.3;;
22515;SDS011;11424;48.860;9.624;2023-07-29T23:50:59;19.8;;;20.7;;
22515;SDS011;11424;48.860;9.624;2023-07-29T23:55:59;51.8;;;55.2;;
